Time;durP1;ratioP1;P1;durP2;ratioP2;P2;SDS_P1;SDS_P2;PMS_P1;PMS_P2;Temp;Humidity;BMP_temperature;BMP_pressure;BME280_temperature;BME280_humidity;BME280_pressure;Samples;Min_cycle;Max_cycle;Signal;HPM_P1;HPM_P2
2021/11/20 00:02:16;;;;;;;4.63;1.73;;;;;;;10.61;100.00;102382.47;6350727;28;20051;-79
2021/11/20 00:05:22;;;;;;;5.30;1.90;;;;;;;10.62;100.00;102377.16;6351729;28;20044;-79
2021/11/20 00:08:24;;;;;;;3.40;1.85;;;;;;;10.57;100.00;102381.66;6350846;28;20052;-79
2021/11/20 00:11:29;;;;;;;3.70;1.63;;;;;;;10.58;100.00;102375.53;6350640;28;20043;-77
2021/11/20 00:14:33;;;;;;;3.70;1.90;;;;;;;10.59;100.00;102364.09;6350924;28;20071;-79
2021/11/20 00:17:34;;;;;;;2.22;1.50;;;;;;;10.56;100.00;102358.91;6350854;28;20043;-77
2021/11/20 00:20:45;;;;;;;3.22;1.83;;;;;;;10.60;100.00;102359.72;6350260;28;20054;-78
2021/11/20 00:23:49;;;;;;;13.10;2.00;;;;;;;10.56;100.00;102373.84;6349520;28;20079;-76
2021/11/20 00:26:51;;;;;;;3.05;1.73;;;;;;;10.50;100.00;102366.13;6350008;28;20044;-79
2021/11/20 00:30:02;;;;;;;3.58;1.65;;;;;;;10.49;100.00;102357.38;6350163;28;20039;-79
2021/11/20 00:33:06;;;;;;;4.32;2.33;;;;;;;10.46;100.00;102367.13;6337654;28;20051;-79
2021/11/20 00:36:09;;;;;;;6.22;1.75;;;;;;;10.49;100.00;102361.75;6326767;28;20044;-79
2021/11/20 00:39:14;;;;;;;4.45;1.60;;;;;;;10.44;100.00;102361.00;6326945;28;20040;-79
2021/11/20 00:42:15;;;;;;;5.28;1.73;;;;;;;10.43;100.00;102361.94;6345898;28;20051;-79
2021/11/20 00:45:18;;;;;;;3.25;1.95;;;;;;;10.51;100.00;102365.22;6350153;28;20043;-79
2021/11/20 00:48:22;;;;;;;1.98;1.77;;;;;;;10.41;100.00;102360.22;6349605;28;20051;-79
2021/11/20 00:51:26;;;;;;;1.65;1.35;;;;;;;10.47;100.00;102353.06;6347932;28;20047;-79
2021/11/20 00:54:28;;;;;;;5.22;2.03;;;;;;;10.55;100.00;102348.47;6349203;28;20048;-78
2021/11/20 00:57:29;;;;;;;3.50;1.67;;;;;;;10.51;100.00;102345.03;6348746;28;20047;-79
2021/11/20 01:00:35;;;;;;;7.75;2.08;;;;;;;10.47;100.00;102346.03;6342590;28;20036;-79
2021/11/20 01:03:37;;;;;;;5.85;1.90;;;;;;;10.49;100.00;102345.97;6332833;28;20152;-79
2021/11/20 01:06:42;;;;;;;5.72;1.50;;;;;;;10.47;100.00;102346.03;6325314;28;20059;-80
2021/11/20 01:09:45;;;;;;;5.07;2.45;;;;;;;10.50;100.00;102351.22;6341516;28;20065;-76
2021/11/20 01:12:47;;;;;;;1.70;1.45;;;;;;;10.44;100.00;102347.88;6349545;28;20044;-80
2021/11/20 01:15:53;;;;;;;2.85;1.73;;;;;;;10.43;100.00;102354.91;6349811;28;20047;-80
2021/11/20 01:18:55;;;;;;;7.38;2.42;;;;;;;10.54;100.00;102349.38;6349336;28;20047;-80
2021/11/20 01:21:59;;;;;;;3.53;2.00;;;;;;;10.56;100.00;102344.91;6343886;28;20055;-77
2021/11/20 01:25:00;;;;;;;3.17;2.08;;;;;;;10.59;100.00;102345.69;6345429;28;20081;-78
2021/11/20 01:28:03;;;;;;;3.63;1.63;;;;;;;10.50;100.00;102330.19;6349170;28;20043;-79
2021/11/20 01:31:07;;;;;;;3.10;1.80;;;;;;;10.46;100.00;102336.44;6348862;28;20406;-80
2021/11/20 01:34:10;;;;;;;2.33;1.63;;;;;;;10.52;100.00;102331.00;6349366;28;20054;-79
2021/11/20 01:37:12;;;;;;;5.00;1.70;;;;;;;10.46;100.00;102317.16;6349088;28;20734;-79
2021/11/20 01:40:16;;;;;;;2.42;1.55;;;;;;;10.44;100.00;102317.19;6349187;28;20180;-80
2021/11/20 01:43:17;;;;;;;6.30;1.77;;;;;;;10.45;100.00;102305.81;6310089;22;20063;-79
2021/11/20 01:46:23;;;;;;;3.85;1.50;;;;;;;10.47;100.00;102306.59;6291932;28;20052;-79
2021/11/20 01:49:28;;;;;;;5.43;1.85;;;;;;;10.55;100.00;102309.03;6293659;28;20049;-79
2021/11/20 01:52:43;;;;;;;3.03;1.70;;;;;;;10.49;100.00;102309.19;6299167;28;20525;-77
2021/11/20 01:55:49;;;;;;;4.63;1.48;;;;;;;10.49;100.00;102306.56;6296562;28;20491;-80
2021/11/20 01:58:59;;;;;;;3.83;1.50;;;;;;;10.50;100.00;102311.78;6297585;28;20423;-77
2021/11/20 02:02:08;;;;;;;5.70;1.90;;;;;;;10.46;100.00;102315.41;6295859;28;20045;-79
2021/11/20 02:05:12;;;;;;;;;;;;;;;10.45;100.00;102311.06;6297618;28;20059;-77
2021/11/20 02:08:21;;;;;;;3.35;1.70;;;;;;;10.44;100.00;102311.94;6296866;28;20294;-77
2021/11/20 02:11:25;;;;;;;4.20;1.75;;;;;;;10.54;100.00;102315.19;6296817;28;20053;-79
2021/11/20 02:14:28;;;;;;;4.28;1.98;;;;;;;10.54;100.00;102302.06;6301613;28;20056;-79
2021/11/20 02:17:36;;;;;;;3.42;2.15;;;;;;;10.49;100.00;102296.94;6302022;28;20048;-79
2021/11/20 02:20:41;;;;;;;4.00;2.25;;;;;;;10.46;100.00;102307.53;6296031;28;20049;-77
2021/11/20 02:23:42;;;;;;;3.53;2.50;;;;;;;10.46;100.00;102294.38;6295906;28;20062;-79
2021/11/20 02:26:43;;;;;;;6.53;2.53;;;;;;;10.44;100.00;102292.69;6296575;28;20056;-77
2021/11/20 02:29:46;;;;;;;11.32;3.13;;;;;;;10.43;100.00;102299.72;6295985;28;20163;-79
2021/11/20 02:32:52;;;;;;;4.05;2.58;;;;;;;10.41;100.00;102299.75;6300948;28;20052;-79
2021/11/20 02:35:56;;;;;;;8.70;2.92;;;;;;;10.48;100.00;102291.69;6297629;28;20055;-79
2021/11/20 02:39:01;;;;;;;8.52;3.33;;;;;;;10.44;100.00;102287.44;6297701;28;20507;-77
2021/11/20 02:42:05;;;;;;;7.38;3.38;;;;;;;10.45;100.00;102289.19;6296827;28;20131;-79
2021/11/20 02:45:18;;;;;;;7.53;3.75;;;;;;;10.39;100.00;102283.16;6297253;28;20048;-77
2021/11/20 02:48:22;;;;;;;7.93;3.58;;;;;;;10.36;100.00;102280.63;6296001;28;20446;-77
2021/11/20 02:51:26;;;;;;;12.48;3.53;;;;;;;10.34;100.00;102290.31;6296000;28;20538;-77
2021/11/20 02:54:30;;;;;;;5.35;3.28;;;;;;;10.37;100.00;102279.72;6295914;28;20554;-77
2021/11/20 02:57:33;;;;;;;7.68;3.80;;;;;;;10.40;100.00;102279.66;6295926;28;20495;-77
2021/11/20 03:00:35;;;;;;;7.68;3.72;;;;;;;10.38;100.00;102268.31;6295991;28;20055;-77
2021/11/20 03:03:39;;;;;;;6.95;3.20;;;;;;;10.35;100.00;102275.41;6295908;28;20071;-77
2021/11/20 03:06:41;;;;;;;10.95;4.57;;;;;;;10.36;100.00;102270.13;6295947;28;20503;-77
2021/11/20 03:09:43;;;;;;;7.20;3.65;;;;;;;10.32;100.00;102262.38;6296212;28;20059;-77
2021/11/20 03:12:45;;;;;;;11.70;4.50;;;;;;;10.41;100.00;102268.22;6295130;28;20044;-77
2021/11/20 03:15:46;;;;;;;6.68;3.80;;;;;;;10.37;100.00;102271.84;6299230;28;20057;-78
2021/11/20 03:18:49;;;;;;;8.98;5.15;;;;;;;10.34;100.00;102265.81;6300117;28;20516;-77
2021/11/20 03:21:53;;;;;;;11.70;4.45;;;;;;;10.39;100.00;102256.03;6300012;28;20052;-77
2021/11/20 03:24:55;;;;;;;13.15;5.10;;;;;;;10.35;100.00;102257.00;6300664;28;20049;-77
2021/11/20 03:27:57;;;;;;;5.75;3.38;;;;;;;10.33;100.00;102256.19;6299727;28;20056;-78
2021/11/20 03:30:58;;;;;;;14.88;5.63;;;;;;;10.33;100.00;102254.44;6299976;28;20480;-77
2021/11/20 03:34:01;;;;;;;6.95;4.35;;;;;;;10.31;100.00;102256.25;6299643;28;20052;-77
2021/11/20 03:37:03;;;;;;;10.55;4.13;;;;;;;10.32;100.00;102251.84;6300199;28;20053;-77
2021/11/20 03:40:11;;;;;;;5.88;3.65;;;;;;;10.33;100.00;102253.56;6299625;28;20056;-77
2021/11/20 03:43:12;;;;;;;9.27;4.07;;;;;;;10.36;100.00;102249.09;6299545;28;20053;-77
2021/11/20 03:46:14;;;;;;;10.50;4.72;;;;;;;10.38;100.00;102252.53;6299579;28;20052;-79
2021/11/20 03:49:17;;;;;;;8.93;4.03;;;;;;;10.33;100.00;102256.19;6299339;28;20388;-77
2021/11/20 03:52:19;;;;;;;6.95;4.28;;;;;;;10.29;100.00;102252.78;6299314;28;20051;-77
2021/11/20 03:55:24;;;;;;;10.80;5.10;;;;;;;10.33;100.00;102257.06;6299867;28;20491;-77
2021/11/20 03:58:25;;;;;;;8.50;4.43;;;;;;;10.31;100.00;102261.50;6299760;28;20063;-77
2021/11/20 04:01:29;;;;;;;8.27;4.65;;;;;;;10.32;100.00;102252.72;6299588;28;20411;-77
2021/11/20 04:04:32;;;;;;;8.82;4.57;;;;;;;10.34;100.00;102243.00;6299578;28;20056;-77
2021/11/20 04:07:33;;;;;;;6.97;4.28;;;;;;;10.37;100.00;102249.97;6299406;28;20055;-77
2021/11/20 04:10:35;;;;;;;10.70;4.70;;;;;;;10.35;100.00;102243.88;6298774;28;20044;-77
2021/11/20 04:13:37;;;;;;;10.95;4.63;;;;;;;10.30;100.00;102251.03;6299004;28;20423;-77
2021/11/20 04:16:39;;;;;;;9.80;5.22;;;;;;;10.29;100.00;102254.56;6298482;28;20396;-78
2021/11/20 04:19:42;;;;;;;10.23;4.40;;;;;;;10.27;100.00;102256.38;6274154;28;20492;-77
2021/11/20 04:22:43;;;;;;;9.48;4.75;;;;;;;10.28;100.00;102252.84;6274178;28;20056;-77
2021/11/20 04:25:45;;;;;;;8.60;4.43;;;;;;;10.31;100.00;102252.75;6273340;28;20519;-77
2021/11/20 04:28:47;;;;;;;7.93;4.03;;;;;;;10.33;100.00;102251.81;6274091;28;20056;-77
2021/11/20 04:31:48;;;;;;;9.43;4.20;;;;;;;10.40;100.00;102250.75;6273298;28;20052;-79
2021/11/20 04:34:52;;;;;;;9.57;4.72;;;;;;;10.34;100.00;102247.41;6291974;28;20049;-79
2021/11/20 04:37:54;;;;;;;8.88;3.90;;;;;;;10.28;100.00;102251.06;6297963;28;20049;-77
2021/11/20 04:40:56;;;;;;;11.07;4.30;;;;;;;10.27;100.00;102246.72;6297481;28;20045;-77
2021/11/20 04:43:57;;;;;;;8.52;4.30;;;;;;;10.26;100.00;102247.59;6298318;28;20049;-77
2021/11/20 04:46:58;;;;;;;7.43;4.18;;;;;;;10.30;100.00;102244.00;6297779;28;20051;-77
2021/11/20 04:50:01;;;;;;;9.77;5.22;;;;;;;10.36;100.00;102243.84;6297751;28;20051;-77
2021/11/20 04:53:03;;;;;;;7.97;4.80;;;;;;;10.30;100.00;102241.38;6297369;28;20052;-77
2021/11/20 04:56:07;;;;;;;10.57;5.57;;;;;;;10.33;100.00;102241.28;6294868;28;20049;-77
2021/11/20 04:59:08;;;;;;;11.65;6.22;;;;;;;10.33;100.00;102238.66;6296949;28;20056;-77
2021/11/20 05:02:10;;;;;;;12.13;5.20;;;;;;;10.38;100.00;102228.03;6297194;28;20488;-79
2021/11/20 05:05:13;;;;;;;14.10;5.55;;;;;;;10.32;100.00;102236.09;6298384;28;20052;-77
2021/11/20 05:08:15;;;;;;;12.25;5.53;;;;;;;10.32;100.00;102236.94;6297518;28;20052;-77
2021/11/20 05:11:18;;;;;;;14.95;7.07;;;;;;;10.25;100.00;102227.50;6296365;28;20044;-77
2021/11/20 05:14:19;;;;;;;11.68;5.78;;;;;;;10.37;100.00;102219.28;6296453;28;20551;-79
2021/11/20 05:17:21;;;;;;;16.13;6.75;;;;;;;10.31;100.00;102226.47;6296557;28;20044;-79
2021/11/20 05:20:23;;;;;;;11.65;6.20;;;;;;;10.28;100.00;102219.53;6297827;28;20056;-80
2021/11/20 05:23:25;;;;;;;14.18;6.40;;;;;;;10.30;100.00;102224.75;6296998;28;20055;-78
2021/11/20 05:26:27;;;;;;;13.82;6.40;;;;;;;10.27;100.00;102211.72;6292943;28;20052;-77
2021/11/20 05:29:35;;;;;;;16.05;7.20;;;;;;;10.28;100.00;102213.44;6295922;28;20045;-77
2021/11/20 05:32:37;;;;;;;14.00;6.72;;;;;;;10.35;100.00;102214.97;6295369;28;20050;-78
2021/11/20 05:35:40;;;;;;;14.52;7.13;;;;;;;10.38;100.00;102228.03;6295497;28;20075;-79
2021/11/20 05:38:43;;;;;;;14.10;7.25;;;;;;;10.36;100.00;102221.97;6295298;28;20060;-79
2021/11/20 05:41:45;;;;;;;14.43;7.00;;;;;;;10.34;100.00;102213.25;6296757;28;20048;-77
2021/11/20 05:44:46;;;;;;;16.45;7.03;;;;;;;10.38;100.00;102213.13;6297090;28;20593;-77
2021/11/20 05:47:48;;;;;;;13.98;7.25;;;;;;;10.33;100.00;102203.66;6296887;28;20075;-77
2021/11/20 05:50:51;;;;;;;13.85;7.55;;;;;;;10.36;100.00;102201.81;6296596;28;20043;-77
2021/11/20 05:53:53;;;;;;;14.75;7.80;;;;;;;10.36;100.00;102206.19;6297149;28;20045;-78
2021/11/20 05:56:55;;;;;;;16.42;7.80;;;;;;;10.34;100.00;102200.97;6296999;28;20388;-77
2021/11/20 05:59:57;;;;;;;12.50;7.18;;;;;;;10.33;100.00;102199.25;6296759;28;20055;-77
2021/11/20 06:03:00;;;;;;;16.75;7.55;;;;;;;10.31;100.00;102200.19;6297118;28;20049;-77
2021/11/20 06:06:05;;;;;;;13.48;7.25;;;;;;;10.31;100.00;102198.44;6295840;28;20446;-77
2021/11/20 06:09:07;;;;;;;14.82;7.35;;;;;;;10.30;100.00;102196.69;6296284;28;20071;-77
2021/11/20 06:12:11;;;;;;;16.83;7.97;;;;;;;10.29;100.00;102200.25;6295994;28;20075;-77
2021/11/20 06:15:13;;;;;;;18.30;8.25;;;;;;;10.33;100.00;102194.00;6298234;28;20053;-80
2021/11/20 06:18:14;;;;;;;17.60;8.07;;;;;;;10.26;100.00;102197.69;6296556;28;20048;-77
2021/11/20 06:21:17;;;;;;;17.73;9.02;;;;;;;10.25;100.00;102193.34;6296864;28;20048;-78
2021/11/20 06:24:18;;;;;;;17.13;8.02;;;;;;;10.25;100.00;102195.13;6296620;28;20045;-77
2021/11/20 06:27:20;;;;;;;17.98;7.57;;;;;;;10.26;100.00;102189.81;6297121;28;20510;-78
2021/11/20 06:30:24;;;;;;;16.13;7.13;;;;;;;10.28;100.00;102195.03;6272275;28;20060;-78
2021/11/20 06:33:25;;;;;;;19.33;8.52;;;;;;;10.28;100.00;102195.91;6276303;28;20049;-78
2021/11/20 06:36:28;;;;;;;19.80;7.28;;;;;;;10.27;100.00;102193.31;6275490;28;20045;-78
2021/11/20 06:39:29;;;;;;;20.55;8.60;;;;;;;10.30;100.00;102203.72;6272262;28;20056;-78
2021/11/20 06:42:31;;;;;;;18.77;9.10;;;;;;;10.25;100.00;102195.97;6282349;28;20045;-78
2021/11/20 06:45:34;;;;;;;19.40;9.38;;;;;;;10.27;100.00;102196.81;6277471;28;20049;-78
2021/11/20 06:48:37;;;;;;;16.25;8.45;;;;;;;10.29;100.00;102205.50;6303710;28;20062;-78
2021/11/20 06:51:39;;;;;;;18.90;8.63;;;;;;;10.24;100.00;102206.50;6313853;28;20495;-78
2021/11/20 06:54:41;;;;;;;17.17;8.13;;;;;;;10.27;100.00;102215.19;6310430;28;20479;-77
2021/11/20 06:57:52;;;;;;;16.80;8.85;;;;;;;10.25;100.00;102226.66;6312024;28;20055;-78
2021/11/20 07:00:56;;;;;;;14.55;6.95;;;;;;;10.21;100.00;102214.47;6309909;28;20064;-78
2021/11/20 07:04:01;;;;;;;18.05;7.70;;;;;;;10.26;100.00;102215.22;6305859;28;20044;-78
2021/11/20 07:07:09;;;;;;;17.63;8.18;;;;;;;10.23;100.00;102217.94;6311179;28;20056;-77
2021/11/20 07:10:10;;;;;;;19.77;7.93;;;;;;;10.25;100.00;102216.13;6304548;28;20106;-78
2021/11/20 07:13:13;;;;;;;19.80;9.05;;;;;;;10.28;100.00;102211.66;6299995;28;20510;-77
2021/11/20 07:16:15;;;;;;;17.17;7.85;;;;;;;10.25;100.00;102217.00;6299202;28;20044;-77
2021/11/20 07:19:16;;;;;;;17.58;8.38;;;;;;;10.25;100.00;102208.25;6299735;28;20059;-77
2021/11/20 07:22:19;;;;;;;20.52;9.13;;;;;;;10.25;100.00;102206.47;6299183;28;20068;-78
2021/11/20 07:25:22;;;;;;;16.27;8.48;;;;;;;10.26;100.00;102200.31;6299571;28;20047;-78
2021/11/20 07:28:24;;;;;;;17.13;7.50;;;;;;;10.30;100.00;102198.47;6309705;28;20076;-77
2021/11/20 07:31:26;;;;;;;15.60;8.20;;;;;;;10.25;100.00;102200.38;6310414;28;20499;-78
2021/11/20 07:34:28;;;;;;;15.07;7.93;;;;;;;10.27;100.00;102202.06;6299884;28;20049;-78
2021/11/20 07:37:31;;;;;;;20.65;9.30;;;;;;;10.29;100.00;102199.38;6305947;28;20404;-78
2021/11/20 07:40:34;;;;;;;15.80;6.93;;;;;;;10.24;100.00;102202.16;6311671;28;20044;-77
2021/11/20 07:43:36;;;;;;;16.65;8.15;;;;;;;10.25;100.00;102203.00;6311563;28;20061;-77
2021/11/20 07:46:37;;;;;;;17.48;7.88;;;;;;;10.20;100.00;102195.22;6301046;28;20634;-77
2021/11/20 07:49:43;;;;;;;16.60;8.25;;;;;;;10.21;100.00;102189.06;6308749;28;20044;-78
2021/11/20 07:52:46;;;;;;;16.35;8.10;;;;;;;10.20;100.00;102195.22;6310052;28;20047;-78
2021/11/20 07:55:48;;;;;;;13.80;6.88;;;;;;;10.23;100.00;102182.00;6304389;28;20056;-78
2021/11/20 07:58:50;;;;;;;13.63;7.38;;;;;;;10.34;100.00;102177.31;6300088;28;20068;-78
2021/11/20 08:01:53;;;;;;;16.02;8.07;;;;;;;10.25;100.00;102176.72;6303312;28;20055;-78
2021/11/20 08:04:54;;;;;;;11.93;7.22;;;;;;;10.25;100.00;102166.22;6307729;28;20127;-78
2021/11/20 08:07:57;;;;;;;15.75;7.55;;;;;;;10.24;100.00;102169.72;6300501;28;20048;-78
2021/11/20 08:10:59;;;;;;;17.38;7.15;;;;;;;10.23;100.00;102168.00;6303550;28;20178;-79
2021/11/20 08:14:00;;;;;;;13.48;6.55;;;;;;;10.23;100.00;102162.75;6311691;28;20052;-78
2021/11/20 08:17:03;;;;;;;13.65;7.32;;;;;;;10.23;100.00;102160.97;6308604;28;20419;-79
2021/11/20 08:20:07;;;;;;;12.50;6.65;;;;;;;10.19;100.00;102164.59;6310006;28;20048;-79
2021/11/20 08:23:13;;;;;;;14.52;6.93;;;;;;;10.21;100.00;102148.78;6305296;28;20045;-78
2021/11/20 08:26:14;;;;;;;13.57;7.32;;;;;;;10.20;100.00;102155.81;6299928;28;20059;-78
2021/11/20 08:29:18;;;;;;;14.48;7.25;;;;;;;10.18;100.00;102155.00;6299785;28;20052;-78
2021/11/20 08:32:22;;;;;;;12.73;6.43;;;;;;;10.21;100.00;102156.66;6299704;28;20484;-79
2021/11/20 08:35:24;;;;;;;17.45;8.10;;;;;;;10.25;100.00;102151.31;6298840;28;20055;-77
2021/11/20 08:38:26;;;;;;;12.65;6.70;;;;;;;10.19;100.00;102153.25;6298865;28;20048;-78
2021/11/20 08:41:28;;;;;;;14.98;7.07;;;;;;;10.25;100.00;102148.69;6299403;28;20051;-78
2021/11/20 08:44:29;;;;;;;13.27;7.22;;;;;;;10.15;100.00;102145.44;6299129;28;20057;-78
2021/11/20 08:47:31;;;;;;;14.48;7.45;;;;;;;10.26;100.00;102144.28;6298085;28;20059;-77
2021/11/20 08:50:35;;;;;;;13.35;6.45;;;;;;;10.25;100.00;102145.19;6297975;28;20075;-77
2021/11/20 08:53:39;;;;;;;12.10;6.05;;;;;;;10.21;100.00;102144.38;6297265;28;20048;-77
2021/11/20 08:56:43;;;;;;;12.85;6.40;;;;;;;10.23;100.00;102142.59;6297345;28;20056;-77
2021/11/20 08:59:44;;;;;;;11.55;5.63;;;;;;;10.27;100.00;102143.41;6297258;28;20051;-78
2021/11/20 09:02:50;;;;;;;9.38;5.82;;;;;;;10.31;100.00;102138.00;6297253;28;20053;-77
2021/11/20 09:05:56;;;;;;;10.23;5.63;;;;;;;10.26;100.00;102147.78;6297478;28;20434;-79
2021/11/20 09:09:03;;;;;;;10.90;6.28;;;;;;;10.34;100.00;102132.66;6297079;28;20048;-77
2021/11/20 09:12:11;;;;;;;11.57;6.25;;;;;;;10.30;100.00;102138.03;6295162;28;20048;-77
2021/11/20 09:15:17;;;;;;;13.30;6.13;;;;;;;10.31;100.00;102131.88;6295638;28;20055;-77
2021/11/20 09:18:19;;;;;;;9.75;5.82;;;;;;;10.33;100.00;102128.31;6296820;28;20052;-77
2021/11/20 09:21:20;;;;;;;11.50;6.30;;;;;;;10.33;100.00;102124.81;6296257;28;20044;-77
2021/11/20 09:24:24;;;;;;;11.13;5.70;;;;;;;10.37;100.00;102121.19;6295908;28;20051;-77
2021/11/20 09:27:26;;;;;;;11.05;5.85;;;;;;;10.36;100.00;102127.38;6295694;28;20049;-77
2021/11/20 09:30:32;;;;;;;15.63;6.78;;;;;;;10.38;100.00;102121.13;6296514;28;20052;-77
2021/11/20 09:33:34;;;;;;;11.82;6.25;;;;;;;10.37;100.00;102118.56;6296735;28;20122;-77
2021/11/20 09:36:36;;;;;;;10.77;6.20;;;;;;;10.43;100.00;102120.13;6296321;28;20048;-77
2021/11/20 09:39:40;;;;;;;14.32;5.50;;;;;;;10.46;100.00;102123.53;6296750;28;20052;-77
2021/11/20 09:42:44;;;;;;;13.63;5.80;;;;;;;10.43;100.00;102118.38;6296739;28;20051;-78
2021/11/20 09:45:51;;;;;;;10.85;5.80;;;;;;;10.45;100.00;102118.34;6297307;28;20052;-79
2021/11/20 09:48:54;;;;;;;12.15;6.18;;;;;;;10.43;100.00;102120.13;6297751;28;20665;-78
2021/11/20 09:51:57;;;;;;;12.63;6.15;;;;;;;10.44;100.00;102113.97;6296438;28;20411;-78
2021/11/20 09:55:00;;;;;;;14.27;6.15;;;;;;;10.42;100.00;102108.78;6296563;28;20052;-77
2021/11/20 09:58:05;;;;;;;16.58;6.57;;;;;;;10.44;100.00;102108.72;6298148;28;20059;-78
2021/11/20 10:01:29;;;;;;;12.38;6.25;;;;;;;10.48;100.00;102103.31;6296572;28;20056;-77
2021/11/20 10:04:33;;;;;;;12.20;6.07;;;;;;;10.50;100.00;102095.41;6285523;28;20051;-78
2021/11/20 10:07:37;;;;;;;14.30;6.03;;;;;;;10.50;100.00;102095.41;6296612;28;20052;-77
2021/11/20 10:10:45;;;;;;;10.98;6.15;;;;;;;10.52;100.00;102093.56;6290445;28;20392;-77
2021/11/20 10:13:50;;;;;;;10.38;5.63;;;;;;;10.53;100.00;102095.28;6298158;28;20044;-79
2021/11/20 10:16:54;;;;;;;10.73;5.93;;;;;;;10.50;100.00;102085.75;6299594;28;20416;-79
2021/11/20 10:19:59;;;;;;;9.50;5.28;;;;;;;10.55;100.00;102088.22;6302900;28;20048;-77
2021/11/20 10:23:05;;;;;;;13.07;5.97;;;;;;;10.58;100.00;102077.59;6300901;28;20526;-78
2021/11/20 10:26:44;;;;;;;14.68;6.35;;;;;;;10.52;100.00;102073.41;6302717;28;20051;-78
2021/11/20 10:29:52;;;;;;;;;;;;;;;10.50;100.00;102075.22;6227968;28;20060;-79
2021/11/20 10:32:58;;;;;;;17.70;6.22;;;;;;;10.52;100.00;102070.78;6306399;28;19920;-79
2021/11/20 10:36:11;;;;;;;10.98;5.38;;;;;;;10.48;100.00;102066.50;6309711;28;20049;-79
2021/11/20 10:39:17;;;;;;;10.10;4.97;;;;;;;10.53;100.00;102059.34;6299623;28;20048;-77
2021/11/20 10:42:23;;;;;;;11.73;5.43;;;;;;;10.58;100.00;102053.94;6283079;28;20043;-77
2021/11/20 10:45:43;;;;;;;12.18;5.38;;;;;;;10.61;100.00;102043.34;6299427;28;20051;-76
2021/11/20 10:48:50;;;;;;;8.70;4.32;;;;;;;10.60;100.00;102039.84;6300682;28;20048;-75
2021/11/20 10:51:56;;;;;;;13.27;5.70;;;;;;;10.65;100.00;102030.03;6299347;28;20052;-76
2021/11/20 10:55:15;;;;;;;12.20;5.60;;;;;;;10.57;100.00;102026.78;6300283;28;20040;-77
2021/11/20 10:58:42;;;;;;;10.55;4.82;;;;;;;10.60;100.00;102031.09;6299910;28;20059;-77
2021/11/20 11:02:15;;;;;;;10.98;5.00;;;;;;;10.57;100.00;102026.78;6294847;28;20047;-77
2021/11/20 11:06:09;;;;;;;10.50;4.93;;;;;;;10.60;100.00;102021.44;6299555;28;20170;-76
2021/11/20 11:09:21;;;;;;;10.60;5.10;;;;;;;10.56;100.00;102014.56;6298578;28;20049;-77
2021/11/20 11:12:38;;;;;;;10.63;5.50;;;;;;;10.63;100.00;101994.22;6297746;28;20044;-76
2021/11/20 11:16:00;;;;;;;9.43;4.72;;;;;;;10.57;100.00;101994.41;6297060;28;20059;-75
2021/11/20 11:19:06;;;;;;;11.95;5.20;;;;;;;10.55;100.00;101983.94;6296932;28;20055;-76
2021/11/20 11:22:25;;;;;;;10.82;5.40;;;;;;;10.51;100.00;101987.56;6297445;28;20049;-79
2021/11/20 11:25:29;;;;;;;9.85;4.38;;;;;;;10.49;100.00;101994.66;6292052;28;20044;-78
2021/11/20 11:28:34;;;;;;;10.88;5.45;;;;;;;10.56;100.00;101980.41;6299614;28;20048;-77
2021/11/20 11:31:39;;;;;;;10.43;5.35;;;;;;;10.49;100.00;101975.38;6295682;28;20142;-78
2021/11/20 11:34:46;;;;;;;13.73;5.88;;;;;;;10.47;100.00;101966.72;6295014;28;20044;-78
2021/11/20 11:38:01;;;;;;;8.95;4.93;;;;;;;10.46;100.00;101957.13;6294487;28;20055;-78
2021/11/20 11:41:10;;;;;;;10.55;4.85;;;;;;;10.44;100.00;101953.66;6296566;28;20732;-78
2021/11/20 11:44:30;;;;;;;12.52;4.90;;;;;;;10.48;100.00;101945.63;6294699;28;20403;-77
2021/11/20 11:47:48;;;;;;;8.07;4.78;;;;;;;10.52;100.00;101935.88;6294746;28;20052;-77
2021/11/20 11:51:05;;;;;;;11.38;5.78;;;;;;;10.50;100.00;101935.06;6294168;28;20051;-78
2021/11/20 11:54:22;;;;;;;9.20;4.63;;;;;;;10.48;100.00;101926.38;6294757;28;20052;-79
2021/11/20 11:57:42;;;;;;;8.95;4.70;;;;;;;10.54;100.00;101927.03;6299584;28;20514;-78
2021/11/20 12:00:56;;;;;;;8.55;4.72;;;;;;;10.53;100.00;101913.94;6298984;28;20586;-78
2021/11/20 12:04:06;;;;;;;11.93;5.63;;;;;;;10.56;100.00;101912.06;6298649;28;20055;-79
2021/11/20 12:07:12;;;;;;;;;;;;;;;10.51;100.00;101905.25;6300103;28;20522;-78
2021/11/20 12:10:28;;;;;;;14.15;5.22;;;;;;;10.54;100.00;101899.91;6295451;28;19920;-79
2021/11/20 12:13:34;;;;;;;8.82;4.38;;;;;;;10.48;100.00;101887.81;6291337;28;20040;-76
2021/11/20 12:16:52;;;;;;;11.43;5.38;;;;;;;10.45;100.00;101890.56;6298567;28;20049;-74
2021/11/20 12:20:12;;;;;;;11.88;5.22;;;;;;;10.44;100.00;101880.94;6298285;28;20071;-76
2021/11/20 12:23:26;;;;;;;11.18;5.88;;;;;;;10.43;100.00;101878.38;6294058;28;20134;-78
2021/11/20 12:26:35;;;;;;;10.43;5.95;;;;;;;10.38;100.00;101873.28;6289420;28;20040;-78
2021/11/20 12:30:06;;;;;;;13.63;6.05;;;;;;;10.38;100.00;101866.25;6294778;28;20499;-78
2021/11/20 12:33:22;;;;;;;11.55;5.57;;;;;;;10.41;100.00;101860.03;6295256;28;20052;-78
2021/11/20 12:36:42;;;;;;;8.32;5.13;;;;;;;10.31;100.00;101856.88;6295445;28;20641;-77
2021/11/20 12:40:05;;;;;;;13.40;5.78;;;;;;;10.32;100.00;101847.22;6296157;28;20048;-77
2021/11/20 12:43:21;;;;;;;11.82;6.38;;;;;;;10.30;100.00;101842.00;6297267;28;20048;-77
2021/11/20 12:46:41;;;;;;;11.43;5.57;;;;;;;10.34;100.00;101837.50;6297536;28;20056;-77
2021/11/20 12:49:46;;;;;;;13.02;5.85;;;;;;;10.36;100.00;101833.91;6298020;28;20055;-78
2021/11/20 12:52:58;;;;;;;12.90;5.80;;;;;;;10.32;100.00;101831.44;6297274;28;20048;-76
2021/11/20 12:56:20;;;;;;;12.60;5.38;;;;;;;10.40;100.00;101832.00;6297784;28;20053;-76
2021/11/20 12:59:26;;;;;;;15.32;5.97;;;;;;;10.36;100.00;101823.41;6294659;28;20058;-77
2021/11/20 13:02:39;;;;;;;11.10;5.78;;;;;;;10.34;100.00;101816.47;6297306;28;20059;-77
2021/11/20 13:05:48;;;;;;;10.85;5.20;;;;;;;10.30;100.00;101814.88;6297157;28;20059;-76
2021/11/20 13:08:57;;;;;;;13.40;6.07;;;;;;;10.34;100.00;101804.19;6298514;28;20135;-81
2021/11/20 13:12:04;;;;;;;14.57;6.07;;;;;;;10.25;100.00;101799.25;6297997;28;20049;-80
2021/11/20 13:15:31;;;;;;;13.82;5.43;;;;;;;10.23;100.00;101797.59;6297825;28;20089;-78
2021/11/20 13:18:37;;;;;;;18.63;7.07;;;;;;;10.23;100.00;101798.44;6297252;28;20048;-75
2021/11/20 13:21:42;;;;;;;16.60;7.30;;;;;;;10.16;99.13;101787.28;6296888;28;20044;-81
2021/11/20 13:24:52;;;;;;;18.58;7.65;;;;;;;10.11;99.97;101796.22;6297893;28;20048;-82
2021/11/20 13:27:58;;;;;;;16.05;7.40;;;;;;;10.08;99.72;101789.34;6298775;28;20059;-81
2021/11/20 13:31:00;;;;;;;17.98;7.68;;;;;;;10.01;100.00;101785.19;6297626;28;20053;-76
2021/11/20 13:34:02;;;;;;;15.90;7.22;;;;;;;10.01;100.00;101772.06;6296599;28;20051;-80
2021/11/20 13:37:10;;;;;;;18.58;7.82;;;;;;;10.01;100.00;101764.19;6296683;28;20045;-78
2021/11/20 13:40:21;;;;;;;19.02;7.85;;;;;;;10.04;100.00;101760.59;6294477;28;20049;-73
2021/11/20 13:43:27;;;;;;;21.15;7.75;;;;;;;9.95;100.00;101771.41;6294152;28;20048;-78
2021/11/20 13:46:28;;;;;;;15.20;7.20;;;;;;;9.91;100.00;101750.50;6296152;28;20044;-79
2021/11/20 13:49:32;;;;;;;18.08;7.68;;;;;;;9.93;100.00;101746.97;6295602;28;20048;-77
2021/11/20 13:52:34;;;;;;;21.60;8.15;;;;;;;9.92;100.00;101740.88;6295378;28;20048;-78
2021/11/20 13:55:36;;;;;;;22.27;8.40;;;;;;;9.92;100.00;101722.47;6319015;22;20055;-75
2021/11/20 13:58:39;;;;;;;24.08;8.73;;;;;;;9.97;100.00;101710.03;6307989;28;20048;-75
2021/11/20 14:01:44;;;;;;;17.83;7.30;;;;;;;9.90;100.00;101713.78;6318502;28;20086;-76
2021/11/20 14:04:45;;;;;;;23.08;8.52;;;;;;;9.90;100.00;101712.03;6329755;28;20040;-81
2021/11/20 14:07:48;;;;;;;19.05;7.20;;;;;;;9.88;100.00;101705.13;6320578;28;20058;-76